sensor_id;sensor_type;location;lat;lon;timestamp;P1;durP1;ratioP1;P2;durP2;ratioP2
2023;SDS011;1016;48.770;9.154;2022-12-24T00:00:13;18.07;;;2.43;;
2023;SDS011;1016;48.770;9.154;2022-12-24T00:02:38;16.50;;;1.70;;
2023;SDS011;1016;48.770;9.154;2022-12-24T00:05:04;16.47;;;1.60;;
2023;SDS011;1016;48.770;9.154;2022-12-24T00:07:30;18.13;;;1.87;;
2023;SDS011;1016;48.770;9.154;2022-12-24T00:09:56;17.60;;;2.20;;
2023;SDS011;1016;48.770;9.154;2022-12-24T00:12:21;17.70;;;2.10;;
2023;SDS011;1016;48.770;9.154;2022-12-24T00:14:47;18.13;;;1.77;;
2023;SDS011;1016;48.770;9.154;2022-12-24T00:17:12;19.73;;;2.03;;
2023;SDS011;1016;48.770;9.154;2022-12-24T00:19:38;15.47;;;1.50;;
2023;SDS011;1016;48.770;9.154;2022-12-24T00:22:03;16.20;;;1.90;;
2023;SDS011;1016;48.770;9.154;2022-12-24T00:24:29;16.90;;;2.07;;
2023;SDS011;1016;48.770;9.154;2022-12-24T00:26:55;14.50;;;1.50;;
2023;SDS011;1016;48.770;9.154;2022-12-24T00:29:21;17.67;;;1.90;;
2023;SDS011;1016;48.770;9.154;2022-12-24T00:31:47;18.00;;;2.00;;
2023;SDS011;1016;48.770;9.154;2022-12-24T00:34:12;16.93;;;1.57;;
2023;SDS011;1016;48.770;9.154;2022-12-24T00:36:38;16.27;;;1.53;;
2023;SDS011;1016;48.770;9.154;2022-12-24T00:39:03;16.03;;;2.07;;
2023;SDS011;1016;48.770;9.154;2022-12-24T00:41:29;16.87;;;1.63;;
2023;SDS011;1016;48.770;9.154;2022-12-24T00:44:02;16.40;;;2.00;;
2023;SDS011;1016;48.770;9.154;2022-12-24T00:46:34;16.23;;;1.60;;
2023;SDS011;1016;48.770;9.154;2022-12-24T00:49:00;14.70;;;1.70;;
2023;SDS011;1016;48.770;9.154;2022-12-24T00:51:26;15.27;;;1.67;;
2023;SDS011;1016;48.770;9.154;2022-12-24T00:53:52;15.50;;;1.53;;
2023;SDS011;1016;48.770;9.154;2022-12-24T00:56:18;16.20;;;2.00;;
2023;SDS011;1016;48.770;9.154;2022-12-24T00:58:44;18.40;;;2.07;;
2023;SDS011;1016;48.770;9.154;2022-12-24T01:01:10;17.77;;;1.90;;
2023;SDS011;1016;48.770;9.154;2022-12-24T01:03:36;16.93;;;1.83;;
2023;SDS011;1016;48.770;9.154;2022-12-24T01:06:05;17.80;;;1.67;;
2023;SDS011;1016;48.770;9.154;2022-12-24T01:08:33;19.07;;;2.37;;
2023;SDS011;1016;48.770;9.154;2022-12-24T01:10:59;17.60;;;1.73;;
2023;SDS011;1016;48.770;9.154;2022-12-24T01:13:25;16.77;;;1.60;;
2023;SDS011;1016;48.770;9.154;2022-12-24T01:15:51;17.20;;;1.90;;
2023;SDS011;1016;48.770;9.154;2022-12-24T01:18:16;15.77;;;1.60;;
2023;SDS011;1016;48.770;9.154;2022-12-24T01:20:42;16.20;;;1.57;;
2023;SDS011;1016;48.770;9.154;2022-12-24T01:23:07;18.33;;;1.90;;
2023;SDS011;1016;48.770;9.154;2022-12-24T01:25:33;17.80;;;1.90;;
2023;SDS011;1016;48.770;9.154;2022-12-24T01:28:01;16.60;;;1.80;;
2023;SDS011;1016;48.770;9.154;2022-12-24T01:30:26;17.97;;;1.83;;
2023;SDS011;1016;48.770;9.154;2022-12-24T01:32:52;16.70;;;1.77;;
2023;SDS011;1016;48.770;9.154;2022-12-24T01:35:17;16.63;;;1.70;;
2023;SDS011;1016;48.770;9.154;2022-12-24T01:37:42;16.43;;;1.70;;
2023;SDS011;1016;48.770;9.154;2022-12-24T01:40:09;15.17;;;1.53;;
2023;SDS011;1016;48.770;9.154;2022-12-24T01:42:57;16.83;;;2.10;;
2023;SDS011;1016;48.770;9.154;2022-12-24T01:45:43;17.67;;;1.97;;
2023;SDS011;1016;48.770;9.154;2022-12-24T01:48:22;18.80;;;1.90;;
2023;SDS011;1016;48.770;9.154;2022-12-24T01:53:43;19.13;;;2.20;;
2023;SDS011;1016;48.770;9.154;2022-12-24T01:56:11;20.53;;;2.67;;
2023;SDS011;1016;48.770;9.154;2022-12-24T01:58:38;18.40;;;2.40;;
2023;SDS011;1016;48.770;9.154;2022-12-24T02:01:06;18.40;;;2.43;;
2023;SDS011;1016;48.770;9.154;2022-12-24T02:03:33;20.63;;;2.40;;
2023;SDS011;1016;48.770;9.154;2022-12-24T02:05:58;18.30;;;2.30;;
2023;SDS011;1016;48.770;9.154;2022-12-24T02:08:24;18.30;;;2.10;;
2023;SDS011;1016;48.770;9.154;2022-12-24T02:11:07;21.27;;;2.67;;
2023;SDS011;1016;48.770;9.154;2022-12-24T02:13:45;18.57;;;2.37;;
2023;SDS011;1016;48.770;9.154;2022-12-24T02:22:20;18.23;;;2.40;;
2023;SDS011;1016;48.770;9.154;2022-12-24T02:25:10;22.07;;;2.13;;
2023;SDS011;1016;48.770;9.154;2022-12-24T02:27:59;17.50;;;2.30;;
2023;SDS011;1016;48.770;9.154;2022-12-24T02:30:41;18.20;;;2.37;;
2023;SDS011;1016;48.770;9.154;2022-12-24T02:35:56;21.00;;;2.57;;
2023;SDS011;1016;48.770;9.154;2022-12-24T02:38:40;18.77;;;2.67;;
2023;SDS011;1016;48.770;9.154;2022-12-24T02:41:17;18.97;;;2.60;;
2023;SDS011;1016;48.770;9.154;2022-12-24T02:43:47;17.43;;;2.03;;
2023;SDS011;1016;48.770;9.154;2022-12-24T02:46:15;17.80;;;2.13;;
2023;SDS011;1016;48.770;9.154;2022-12-24T02:48:47;19.47;;;2.30;;
2023;SDS011;1016;48.770;9.154;2022-12-24T02:51:13;20.83;;;2.43;;
2023;SDS011;1016;48.770;9.154;2022-12-24T02:53:39;19.37;;;2.20;;
2023;SDS011;1016;48.770;9.154;2022-12-24T02:56:21;16.13;;;1.90;;
2023;SDS011;1016;48.770;9.154;2022-12-24T03:07:16;20.90;;;2.37;;
2023;SDS011;1016;48.770;9.154;2022-12-24T03:12:25;16.63;;;1.90;;
2023;SDS011;1016;48.770;9.154;2022-12-24T03:14:56;17.60;;;2.40;;
2023;SDS011;1016;48.770;9.154;2022-12-24T03:17:23;16.80;;;2.17;;
2023;SDS011;1016;48.770;9.154;2022-12-24T03:19:49;17.93;;;2.50;;
2023;SDS011;1016;48.770;9.154;2022-12-24T03:22:15;17.90;;;2.47;;
2023;SDS011;1016;48.770;9.154;2022-12-24T03:24:42;18.80;;;2.10;;
2023;SDS011;1016;48.770;9.154;2022-12-24T03:27:08;22.10;;;3.10;;
2023;SDS011;1016;48.770;9.154;2022-12-24T03:29:35;17.50;;;2.10;;
2023;SDS011;1016;48.770;9.154;2022-12-24T03:32:03;19.77;;;2.43;;
2023;SDS011;1016;48.770;9.154;2022-12-24T03:34:29;17.00;;;2.33;;
2023;SDS011;1016;48.770;9.154;2022-12-24T03:36:54;20.03;;;2.80;;
2023;SDS011;1016;48.770;9.154;2022-12-24T03:39:20;17.37;;;2.37;;
2023;SDS011;1016;48.770;9.154;2022-12-24T03:41:46;19.27;;;2.30;;
2023;SDS011;1016;48.770;9.154;2022-12-24T03:44:12;18.93;;;2.90;;
2023;SDS011;1016;48.770;9.154;2022-12-24T03:46:38;17.40;;;2.40;;
2023;SDS011;1016;48.770;9.154;2022-12-24T03:49:03;19.97;;;2.17;;
2023;SDS011;1016;48.770;9.154;2022-12-24T03:51:29;21.63;;;2.63;;
2023;SDS011;1016;48.770;9.154;2022-12-24T03:53:57;27.27;;;3.17;;
2023;SDS011;1016;48.770;9.154;2022-12-24T03:56:23;20.00;;;2.37;;
2023;SDS011;1016;48.770;9.154;2022-12-24T03:58:48;16.77;;;1.90;;
2023;SDS011;1016;48.770;9.154;2022-12-24T04:01:15;20.33;;;2.67;;
2023;SDS011;1016;48.770;9.154;2022-12-24T04:03:40;21.10;;;2.70;;
2023;SDS011;1016;48.770;9.154;2022-12-24T04:06:07;17.23;;;2.13;;
2023;SDS011;1016;48.770;9.154;2022-12-24T04:08:34;17.20;;;1.90;;
2023;SDS011;1016;48.770;9.154;2022-12-24T04:11:00;17.00;;;2.30;;
2023;SDS011;1016;48.770;9.154;2022-12-24T04:13:27;20.50;;;2.50;;
2023;SDS011;1016;48.770;9.154;2022-12-24T04:15:57;19.63;;;2.20;;
2023;SDS011;1016;48.770;9.154;2022-12-24T04:18:24;20.50;;;2.90;;
2023;SDS011;1016;48.770;9.154;2022-12-24T04:20:50;19.00;;;2.10;;
2023;SDS011;1016;48.770;9.154;2022-12-24T04:23:16;18.03;;;2.13;;
2023;SDS011;1016;48.770;9.154;2022-12-24T04:25:41;17.97;;;2.70;;
2023;SDS011;1016;48.770;9.154;2022-12-24T04:28:07;19.40;;;2.57;;
2023;SDS011;1016;48.770;9.154;2022-12-24T04:30:32;20.47;;;2.33;;
2023;SDS011;1016;48.770;9.154;2022-12-24T04:32:58;18.60;;;2.53;;
2023;SDS011;1016;48.770;9.154;2022-12-24T04:35:23;18.00;;;2.23;;
2023;SDS011;1016;48.770;9.154;2022-12-24T04:37:49;18.33;;;2.20;;
2023;SDS011;1016;48.770;9.154;2022-12-24T04:40:14;19.03;;;2.53;;
2023;SDS011;1016;48.770;9.154;2022-12-24T04:42:40;20.20;;;2.43;;
2023;SDS011;1016;48.770;9.154;2022-12-24T04:45:05;20.90;;;2.30;;
2023;SDS011;1016;48.770;9.154;2022-12-24T04:47:31;21.23;;;2.70;;
2023;SDS011;1016;48.770;9.154;2022-12-24T04:49:57;20.70;;;2.57;;
2023;SDS011;1016;48.770;9.154;2022-12-24T04:52:23;18.00;;;2.27;;
2023;SDS011;1016;48.770;9.154;2022-12-24T04:54:48;20.80;;;2.30;;
2023;SDS011;1016;48.770;9.154;2022-12-24T04:57:14;19.77;;;2.60;;
2023;SDS011;1016;48.770;9.154;2022-12-24T04:59:39;19.70;;;2.37;;
2023;SDS011;1016;48.770;9.154;2022-12-24T05:02:05;18.53;;;2.20;;
2023;SDS011;1016;48.770;9.154;2022-12-24T05:04:30;17.00;;;2.10;;
2023;SDS011;1016;48.770;9.154;2022-12-24T05:06:56;20.63;;;2.33;;
2023;SDS011;1016;48.770;9.154;2022-12-24T05:09:21;19.37;;;2.27;;
2023;SDS011;1016;48.770;9.154;2022-12-24T05:11:47;19.70;;;2.20;;
2023;SDS011;1016;48.770;9.154;2022-12-24T05:14:12;17.47;;;1.67;;
2023;SDS011;1016;48.770;9.154;2022-12-24T05:16:38;18.40;;;2.20;;
2023;SDS011;1016;48.770;9.154;2022-12-24T05:19:03;17.97;;;2.37;;
2023;SDS011;1016;48.770;9.154;2022-12-24T05:21:29;19.63;;;2.60;;
2023;SDS011;1016;48.770;9.154;2022-12-24T05:23:54;16.30;;;2.00;;
2023;SDS011;1016;48.770;9.154;2022-12-24T05:29:13;21.00;;;2.23;;
2023;SDS011;1016;48.770;9.154;2022-12-24T05:31:38;22.03;;;2.47;;
2023;SDS011;1016;48.770;9.154;2022-12-24T05:34:05;22.00;;;2.60;;
2023;SDS011;1016;48.770;9.154;2022-12-24T05:36:31;17.60;;;2.33;;
2023;SDS011;1016;48.770;9.154;2022-12-24T05:38:57;21.10;;;2.70;;
2023;SDS011;1016;48.770;9.154;2022-12-24T05:41:23;22.17;;;2.93;;
2023;SDS011;1016;48.770;9.154;2022-12-24T05:43:48;21.00;;;2.47;;
2023;SDS011;1016;48.770;9.154;2022-12-24T05:46:16;18.67;;;2.30;;
2023;SDS011;1016;48.770;9.154;2022-12-24T05:48:43;18.93;;;3.03;;
2023;SDS011;1016;48.770;9.154;2022-12-24T05:51:09;21.13;;;2.60;;
2023;SDS011;1016;48.770;9.154;2022-12-24T05:53:37;20.10;;;2.83;;
2023;SDS011;1016;48.770;9.154;2022-12-24T05:56:04;22.80;;;3.60;;
2023;SDS011;1016;48.770;9.154;2022-12-24T05:58:34;18.47;;;2.53;;
2023;SDS011;1016;48.770;9.154;2022-12-24T06:01:01;18.47;;;2.70;;
2023;SDS011;1016;48.770;9.154;2022-12-24T06:03:28;18.60;;;2.30;;
2023;SDS011;1016;48.770;9.154;2022-12-24T06:06:01;20.40;;;2.83;;
2023;SDS011;1016;48.770;9.154;2022-12-24T06:08:29;25.23;;;3.20;;
2023;SDS011;1016;48.770;9.154;2022-12-24T06:10:56;24.10;;;3.07;;
2023;SDS011;1016;48.770;9.154;2022-12-24T06:13:22;18.27;;;2.20;;
2023;SDS011;1016;48.770;9.154;2022-12-24T06:15:49;18.77;;;2.50;;
2023;SDS011;1016;48.770;9.154;2022-12-24T06:18:15;19.50;;;2.10;;
2023;SDS011;1016;48.770;9.154;2022-12-24T06:20:40;18.10;;;2.30;;
2023;SDS011;1016;48.770;9.154;2022-12-24T06:23:06;18.37;;;2.23;;
2023;SDS011;1016;48.770;9.154;2022-12-24T06:25:31;17.93;;;2.67;;
2023;SDS011;1016;48.770;9.154;2022-12-24T06:27:58;20.93;;;2.47;;
2023;SDS011;1016;48.770;9.154;2022-12-24T06:30:23;19.33;;;3.27;;
2023;SDS011;1016;48.770;9.154;2022-12-24T06:32:49;19.10;;;2.23;;
2023;SDS011;1016;48.770;9.154;2022-12-24T06:35:14;19.77;;;2.50;;
2023;SDS011;1016;48.770;9.154;2022-12-24T06:37:39;19.80;;;3.47;;
2023;SDS011;1016;48.770;9.154;2022-12-24T06:40:05;21.63;;;4.07;;
2023;SDS011;1016;48.770;9.154;2022-12-24T06:42:31;23.80;;;6.30;;
2023;SDS011;1016;48.770;9.154;2022-12-24T06:44:57;23.33;;;5.17;;
2023;SDS011;1016;48.770;9.154;2022-12-24T06:47:22;24.37;;;6.20;;
2023;SDS011;1016;48.770;9.154;2022-12-24T06:49:48;26.23;;;7.20;;
2023;SDS011;1016;48.770;9.154;2022-12-24T06:52:13;24.87;;;6.60;;
2023;SDS011;1016;48.770;9.154;2022-12-24T06:54:39;23.07;;;5.83;;
2023;SDS011;1016;48.770;9.154;2022-12-24T06:57:04;22.17;;;5.00;;
2023;SDS011;1016;48.770;9.154;2022-12-24T06:59:31;23.00;;;4.60;;
2023;SDS011;1016;48.770;9.154;2022-12-24T07:01:56;18.60;;;3.40;;
2023;SDS011;1016;48.770;9.154;2022-12-24T07:04:22;19.73;;;2.93;;
2023;SDS011;1016;48.770;9.154;2022-12-24T07:06:47;23.63;;;3.43;;
2023;SDS011;1016;48.770;9.154;2022-12-24T07:09:13;17.70;;;2.47;;
2023;SDS011;1016;48.770;9.154;2022-12-24T07:11:39;20.70;;;2.97;;
2023;SDS011;1016;48.770;9.154;2022-12-24T07:14:04;19.37;;;2.47;;
2023;SDS011;1016;48.770;9.154;2022-12-24T07:16:30;20.93;;;2.40;;
2023;SDS011;1016;48.770;9.154;2022-12-24T07:18:55;21.00;;;2.70;;
2023;SDS011;1016;48.770;9.154;2022-12-24T07:21:21;21.23;;;3.00;;
2023;SDS011;1016;48.770;9.154;2022-12-24T07:23:46;19.57;;;3.00;;
2023;SDS011;1016;48.770;9.154;2022-12-24T07:26:12;19.50;;;3.27;;
2023;SDS011;1016;48.770;9.154;2022-12-24T07:28:37;20.93;;;4.30;;
2023;SDS011;1016;48.770;9.154;2022-12-24T07:31:03;21.13;;;3.60;;
2023;SDS011;1016;48.770;9.154;2022-12-24T07:33:29;21.20;;;3.07;;
2023;SDS011;1016;48.770;9.154;2022-12-24T07:36:01;19.83;;;3.00;;
2023;SDS011;1016;48.770;9.154;2022-12-24T07:38:29;18.63;;;2.90;;
2023;SDS011;1016;48.770;9.154;2022-12-24T07:40:55;20.57;;;2.80;;
2023;SDS011;1016;48.770;9.154;2022-12-24T07:43:21;18.10;;;3.10;;
2023;SDS011;1016;48.770;9.154;2022-12-24T07:45:48;21.80;;;3.73;;
2023;SDS011;1016;48.770;9.154;2022-12-24T07:48:13;21.63;;;2.80;;
2023;SDS011;1016;48.770;9.154;2022-12-24T07:50:39;18.27;;;2.57;;
2023;SDS011;1016;48.770;9.154;2022-12-24T07:53:05;19.27;;;3.93;;
2023;SDS011;1016;48.770;9.154;2022-12-24T07:55:30;21.23;;;3.40;;
2023;SDS011;1016;48.770;9.154;2022-12-24T07:57:56;19.33;;;3.03;;
2023;SDS011;1016;48.770;9.154;2022-12-24T08:00:21;17.50;;;3.10;;
2023;SDS011;1016;48.770;9.154;2022-12-24T08:02:47;20.67;;;2.90;;
2023;SDS011;1016;48.770;9.154;2022-12-24T08:05:12;17.73;;;2.70;;
2023;SDS011;1016;48.770;9.154;2022-12-24T08:07:38;21.43;;;3.70;;
2023;SDS011;1016;48.770;9.154;2022-12-24T08:10:03;20.33;;;3.20;;
2023;SDS011;1016;48.770;9.154;2022-12-24T08:12:29;19.17;;;3.73;;
2023;SDS011;1016;48.770;9.154;2022-12-24T08:14:55;20.23;;;4.30;;
2023;SDS011;1016;48.770;9.154;2022-12-24T08:17:20;18.53;;;3.53;;
2023;SDS011;1016;48.770;9.154;2022-12-24T08:19:46;21.53;;;4.10;;
2023;SDS011;1016;48.770;9.154;2022-12-24T08:22:11;19.00;;;4.17;;
2023;SDS011;1016;48.770;9.154;2022-12-24T08:24:37;26.00;;;4.40;;
2023;SDS011;1016;48.770;9.154;2022-12-24T08:27:02;21.20;;;3.80;;
2023;SDS011;1016;48.770;9.154;2022-12-24T08:29:28;22.53;;;3.50;;
2023;SDS011;1016;48.770;9.154;2022-12-24T08:31:53;21.57;;;3.40;;
2023;SDS011;1016;48.770;9.154;2022-12-24T08:34:19;17.47;;;3.20;;
2023;SDS011;1016;48.770;9.154;2022-12-24T08:36:44;19.47;;;3.07;;
2023;SDS011;1016;48.770;9.154;2022-12-24T08:39:10;19.60;;;3.30;;
2023;SDS011;1016;48.770;9.154;2022-12-24T08:41:35;20.77;;;2.80;;
2023;SDS011;1016;48.770;9.154;2022-12-24T08:44:01;20.83;;;3.30;;
2023;SDS011;1016;48.770;9.154;2022-12-24T08:46:26;23.40;;;3.40;;
2023;SDS011;1016;48.770;9.154;2022-12-24T08:48:52;21.60;;;3.10;;
2023;SDS011;1016;48.770;9.154;2022-12-24T08:51:17;19.10;;;3.30;;
2023;SDS011;1016;48.770;9.154;2022-12-24T08:53:43;22.10;;;2.83;;
2023;SDS011;1016;48.770;9.154;2022-12-24T08:56:09;22.43;;;3.10;;
2023;SDS011;1016;48.770;9.154;2022-12-24T08:58:36;21.33;;;3.53;;
2023;SDS011;1016;48.770;9.154;2022-12-24T09:01:08;17.47;;;2.60;;
2023;SDS011;1016;48.770;9.154;2022-12-24T09:03:35;18.33;;;2.80;;
2023;SDS011;1016;48.770;9.154;2022-12-24T09:06:04;20.53;;;2.90;;
2023;SDS011;1016;48.770;9.154;2022-12-24T09:08:31;20.27;;;3.40;;
2023;SDS011;1016;48.770;9.154;2022-12-24T09:11:01;20.90;;;3.10;;
2023;SDS011;1016;48.770;9.154;2022-12-24T09:13:31;19.80;;;2.70;;
2023;SDS011;1016;48.770;9.154;2022-12-24T09:15:56;19.00;;;2.70;;
2023;SDS011;1016;48.770;9.154;2022-12-24T09:18:22;18.83;;;2.93;;
2023;SDS011;1016;48.770;9.154;2022-12-24T09:20:48;18.10;;;2.87;;
2023;SDS011;1016;48.770;9.154;2022-12-24T09:23:13;21.07;;;2.90;;
2023;SDS011;1016;48.770;9.154;2022-12-24T09:25:40;21.63;;;4.07;;
2023;SDS011;1016;48.770;9.154;2022-12-24T09:28:08;20.63;;;2.70;;
2023;SDS011;1016;48.770;9.154;2022-12-24T09:30:35;21.03;;;2.70;;
2023;SDS011;1016;48.770;9.154;2022-12-24T09:33:01;19.30;;;2.53;;
2023;SDS011;1016;48.770;9.154;2022-12-24T09:35:27;22.53;;;2.80;;
2023;SDS011;1016;48.770;9.154;2022-12-24T09:37:52;17.87;;;2.30;;
2023;SDS011;1016;48.770;9.154;2022-12-24T09:40:28;22.10;;;2.90;;
2023;SDS011;1016;48.770;9.154;2022-12-24T09:43:11;24.50;;;2.70;;
2023;SDS011;1016;48.770;9.154;2022-12-24T09:45:43;18.10;;;2.30;;
2023;SDS011;1016;48.770;9.154;2022-12-24T09:48:14;23.53;;;3.70;;
2023;SDS011;1016;48.770;9.154;2022-12-24T09:53:41;20.80;;;2.93;;
2023;SDS011;1016;48.770;9.154;2022-12-24T09:56:14;18.30;;;2.50;;
2023;SDS011;1016;48.770;9.154;2022-12-24T09:58:43;21.00;;;3.23;;
2023;SDS011;1016;48.770;9.154;2022-12-24T10:01:16;22.77;;;2.80;;
2023;SDS011;1016;48.770;9.154;2022-12-24T10:03:43;20.03;;;3.40;;
2023;SDS011;1016;48.770;9.154;2022-12-24T10:06:11;21.07;;;3.17;;
2023;SDS011;1016;48.770;9.154;2022-12-24T10:08:47;18.93;;;2.77;;
2023;SDS011;1016;48.770;9.154;2022-12-24T10:11:43;19.93;;;3.13;;
2023;SDS011;1016;48.770;9.154;2022-12-24T10:19:43;20.47;;;3.03;;
2023;SDS011;1016;48.770;9.154;2022-12-24T10:27:29;18.77;;;2.63;;
2023;SDS011;1016;48.770;9.154;2022-12-24T10:30:11;20.50;;;2.90;;
2023;SDS011;1016;48.770;9.154;2022-12-24T10:32:43;20.90;;;4.10;;
2023;SDS011;1016;48.770;9.154;2022-12-24T10:37:44;22.80;;;3.30;;
2023;SDS011;1016;48.770;9.154;2022-12-24T10:40:13;22.60;;;3.60;;
2023;SDS011;1016;48.770;9.154;2022-12-24T10:42:54;19.53;;;3.50;;
2023;SDS011;1016;48.770;9.154;2022-12-24T10:45:20;24.53;;;3.67;;
2023;SDS011;1016;48.770;9.154;2022-12-24T10:47:48;20.60;;;3.10;;
2023;SDS011;1016;48.770;9.154;2022-12-24T10:50:25;21.67;;;3.17;;
2023;SDS011;1016;48.770;9.154;2022-12-24T10:52:57;20.10;;;2.90;;
2023;SDS011;1016;48.770;9.154;2022-12-24T10:55:30;21.70;;;2.63;;
2023;SDS011;1016;48.770;9.154;2022-12-24T10:58:06;21.70;;;3.13;;
2023;SDS011;1016;48.770;9.154;2022-12-24T11:00:39;19.53;;;2.70;;
2023;SDS011;1016;48.770;9.154;2022-12-24T11:03:07;21.80;;;3.47;;
2023;SDS011;1016;48.770;9.154;2022-12-24T11:05:35;18.47;;;2.93;;
2023;SDS011;1016;48.770;9.154;2022-12-24T11:08:03;20.53;;;3.10;;
2023;SDS011;1016;48.770;9.154;2022-12-24T11:10:40;21.80;;;3.20;;
2023;SDS011;1016;48.770;9.154;2022-12-24T11:13:28;22.10;;;3.00;;
2023;SDS011;1016;48.770;9.154;2022-12-24T11:15:59;20.80;;;3.60;;
2023;SDS011;1016;48.770;9.154;2022-12-24T11:18:27;22.33;;;3.50;;
2023;SDS011;1016;48.770;9.154;2022-12-24T11:20:55;20.70;;;3.13;;
2023;SDS011;1016;48.770;9.154;2022-12-24T11:23:23;23.47;;;3.33;;
2023;SDS011;1016;48.770;9.154;2022-12-24T11:25:49;19.90;;;3.40;;
2023;SDS011;1016;48.770;9.154;2022-12-24T11:28:22;19.93;;;2.80;;
2023;SDS011;1016;48.770;9.154;2022-12-24T11:30:58;18.53;;;2.90;;
2023;SDS011;1016;48.770;9.154;2022-12-24T11:33:26;20.50;;;2.93;;
2023;SDS011;1016;48.770;9.154;2022-12-24T11:35:59;24.87;;;3.17;;
2023;SDS011;1016;48.770;9.154;2022-12-24T11:38:26;19.27;;;2.47;;
2023;SDS011;1016;48.770;9.154;2022-12-24T11:41:01;22.07;;;2.63;;
2023;SDS011;1016;48.770;9.154;2022-12-24T11:43:35;22.37;;;3.30;;
2023;SDS011;1016;48.770;9.154;2022-12-24T11:46:17;21.90;;;2.70;;
2023;SDS011;1016;48.770;9.154;2022-12-24T11:48:45;20.43;;;2.70;;
2023;SDS011;1016;48.770;9.154;2022-12-24T11:51:21;19.20;;;3.00;;
2023;SDS011;1016;48.770;9.154;2022-12-24T11:56:43;20.70;;;3.80;;
2023;SDS011;1016;48.770;9.154;2022-12-24T11:59:14;23.10;;;2.57;;
2023;SDS011;1016;48.770;9.154;2022-12-24T12:04:56;19.20;;;2.50;;
2023;SDS011;1016;48.770;9.154;2022-12-24T12:07:34;20.93;;;2.70;;
2023;SDS011;1016;48.770;9.154;2022-12-24T12:10:22;18.93;;;2.73;;
2023;SDS011;1016;48.770;9.154;2022-12-24T12:12:59;21.27;;;2.93;;
2023;SDS011;1016;48.770;9.154;2022-12-24T12:15:32;19.70;;;2.53;;
2023;SDS011;1016;48.770;9.154;2022-12-24T12:18:03;21.73;;;3.17;;
2023;SDS011;1016;48.770;9.154;2022-12-24T12:20:46;26.67;;;3.40;;
2023;SDS011;1016;48.770;9.154;2022-12-24T12:23:22;22.10;;;2.73;;
2023;SDS011;1016;48.770;9.154;2022-12-24T12:25:58;20.70;;;3.07;;
2023;SDS011;1016;48.770;9.154;2022-12-24T12:28:43;21.70;;;2.43;;
2023;SDS011;1016;48.770;9.154;2022-12-24T12:31:25;21.47;;;2.73;;
2023;SDS011;1016;48.770;9.154;2022-12-24T12:34:12;23.10;;;3.30;;
2023;SDS011;1016;48.770;9.154;2022-12-24T12:37:00;20.90;;;2.60;;
2023;SDS011;1016;48.770;9.154;2022-12-24T12:39:38;24.13;;;3.20;;
2023;SDS011;1016;48.770;9.154;2022-12-24T12:45:48;22.13;;;3.10;;
2023;SDS011;1016;48.770;9.154;2022-12-24T12:47:54;20.97;;;2.60;;
2023;SDS011;1016;48.770;9.154;2022-12-24T12:50:39;22.60;;;3.23;;
2023;SDS011;1016;48.770;9.154;2022-12-24T12:53:10;21.80;;;3.33;;
2023;SDS011;1016;48.770;9.154;2022-12-24T12:58:30;22.00;;;2.90;;
2023;SDS011;1016;48.770;9.154;2022-12-24T13:01:39;24.90;;;4.53;;
2023;SDS011;1016;48.770;9.154;2022-12-24T13:07:09;19.97;;;3.40;;
2023;SDS011;1016;48.770;9.154;2022-12-24T13:09:50;21.23;;;2.77;;
2023;SDS011;1016;48.770;9.154;2022-12-24T13:12:35;20.60;;;3.37;;
2023;SDS011;1016;48.770;9.154;2022-12-24T13:20:29;20.97;;;3.17;;
2023;SDS011;1016;48.770;9.154;2022-12-24T13:23:09;25.87;;;3.27;;
2023;SDS011;1016;48.770;9.154;2022-12-24T13:25:42;22.57;;;2.50;;
2023;SDS011;1016;48.770;9.154;2022-12-24T13:30:44;20.13;;;2.70;;
2023;SDS011;1016;48.770;9.154;2022-12-24T13:33:12;17.70;;;2.40;;
2023;SDS011;1016;48.770;9.154;2022-12-24T13:35:59;21.83;;;2.97;;
2023;SDS011;1016;48.770;9.154;2022-12-24T13:40:51;20.20;;;2.90;;
2023;SDS011;1016;48.770;9.154;2022-12-24T13:43:18;21.97;;;4.37;;
2023;SDS011;1016;48.770;9.154;2022-12-24T13:45:44;18.43;;;3.10;;
2023;SDS011;1016;48.770;9.154;2022-12-24T13:58:46;25.53;;;5.70;;
2023;SDS011;1016;48.770;9.154;2022-12-24T14:01:32;26.80;;;4.77;;
2023;SDS011;1016;48.770;9.154;2022-12-24T14:04:01;19.27;;;4.20;;
2023;SDS011;1016;48.770;9.154;2022-12-24T14:06:30;23.27;;;5.17;;
2023;SDS011;1016;48.770;9.154;2022-12-24T14:09:08;24.20;;;5.90;;
2023;SDS011;1016;48.770;9.154;2022-12-24T14:14:33;22.00;;;4.90;;
2023;SDS011;1016;48.770;9.154;2022-12-24T14:17:14;21.80;;;4.83;;
2023;SDS011;1016;48.770;9.154;2022-12-24T14:19:48;21.67;;;4.87;;
2023;SDS011;1016;48.770;9.154;2022-12-24T14:22:19;23.73;;;3.90;;
2023;SDS011;1016;48.770;9.154;2022-12-24T14:25:11;22.40;;;3.90;;
2023;SDS011;1016;48.770;9.154;2022-12-24T14:30:22;22.53;;;3.90;;
2023;SDS011;1016;48.770;9.154;2022-12-24T14:32:49;20.33;;;4.03;;
2023;SDS011;1016;48.770;9.154;2022-12-24T14:35:17;23.73;;;3.40;;
2023;SDS011;1016;48.770;9.154;2022-12-24T14:37:48;20.57;;;3.67;;
2023;SDS011;1016;48.770;9.154;2022-12-24T14:40:18;25.43;;;4.97;;
2023;SDS011;1016;48.770;9.154;2022-12-24T14:45:44;22.20;;;3.80;;
2023;SDS011;1016;48.770;9.154;2022-12-24T14:48:15;23.60;;;3.63;;
2023;SDS011;1016;48.770;9.154;2022-12-24T14:51:02;23.33;;;3.53;;
2023;SDS011;1016;48.770;9.154;2022-12-24T14:56:32;20.30;;;3.60;;
2023;SDS011;1016;48.770;9.154;2022-12-24T14:58:58;23.27;;;4.03;;
2023;SDS011;1016;48.770;9.154;2022-12-24T15:01:29;25.60;;;4.63;;
2023;SDS011;1016;48.770;9.154;2022-12-24T15:04:13;20.97;;;4.10;;
2023;SDS011;1016;48.770;9.154;2022-12-24T15:06:42;23.97;;;4.53;;
2023;SDS011;1016;48.770;9.154;2022-12-24T15:09:18;22.70;;;5.10;;
2023;SDS011;1016;48.770;9.154;2022-12-24T15:11:50;24.90;;;5.50;;
2023;SDS011;1016;48.770;9.154;2022-12-24T15:14:18;22.43;;;4.80;;
2023;SDS011;1016;48.770;9.154;2022-12-24T15:16:51;23.43;;;4.37;;
2023;SDS011;1016;48.770;9.154;2022-12-24T15:19:31;23.13;;;4.23;;
2023;SDS011;1016;48.770;9.154;2022-12-24T15:22:01;19.80;;;3.80;;
2023;SDS011;1016;48.770;9.154;2022-12-24T15:24:31;18.97;;;3.40;;
2023;SDS011;1016;48.770;9.154;2022-12-24T15:26:59;28.60;;;3.43;;
2023;SDS011;1016;48.770;9.154;2022-12-24T15:29:31;18.70;;;3.03;;
2023;SDS011;1016;48.770;9.154;2022-12-24T15:31:58;22.50;;;2.97;;
2023;SDS011;1016;48.770;9.154;2022-12-24T15:34:36;20.77;;;3.27;;
2023;SDS011;1016;48.770;9.154;2022-12-24T15:40:17;22.27;;;3.57;;
2023;SDS011;1016;48.770;9.154;2022-12-24T15:42:45;21.87;;;3.67;;
2023;SDS011;1016;48.770;9.154;2022-12-24T15:45:12;22.27;;;3.33;;
2023;SDS011;1016;48.770;9.154;2022-12-24T15:47:44;19.03;;;3.17;;
2023;SDS011;1016;48.770;9.154;2022-12-24T15:50:17;22.63;;;4.33;;
2023;SDS011;1016;48.770;9.154;2022-12-24T15:52:48;21.90;;;3.33;;
2023;SDS011;1016;48.770;9.154;2022-12-24T15:55:35;21.10;;;3.70;;
2023;SDS011;1016;48.770;9.154;2022-12-24T15:58:14;25.07;;;3.83;;
2023;SDS011;1016;48.770;9.154;2022-12-24T16:00:42;22.93;;;3.70;;
2023;SDS011;1016;48.770;9.154;2022-12-24T16:03:09;19.87;;;3.10;;
2023;SDS011;1016;48.770;9.154;2022-12-24T16:05:40;20.50;;;4.00;;
2023;SDS011;1016;48.770;9.154;2022-12-24T16:10:48;22.77;;;3.50;;
2023;SDS011;1016;48.770;9.154;2022-12-24T16:13:24;21.57;;;4.40;;
2023;SDS011;1016;48.770;9.154;2022-12-24T16:15:54;21.53;;;4.50;;
2023;SDS011;1016;48.770;9.154;2022-12-24T16:18:24;20.37;;;4.00;;
2023;SDS011;1016;48.770;9.154;2022-12-24T16:20:53;23.13;;;4.30;;
2023;SDS011;1016;48.770;9.154;2022-12-24T16:23:21;24.87;;;5.47;;
2023;SDS011;1016;48.770;9.154;2022-12-24T16:25:49;22.23;;;5.70;;
2023;SDS011;1016;48.770;9.154;2022-12-24T16:28:16;23.53;;;5.77;;
2023;SDS011;1016;48.770;9.154;2022-12-24T16:30:43;26.37;;;6.83;;
2023;SDS011;1016;48.770;9.154;2022-12-24T16:33:17;21.97;;;5.40;;
2023;SDS011;1016;48.770;9.154;2022-12-24T16:35:44;22.80;;;5.33;;
2023;SDS011;1016;48.770;9.154;2022-12-24T16:38:11;26.70;;;5.87;;
2023;SDS011;1016;48.770;9.154;2022-12-24T16:40:37;22.10;;;5.40;;
2023;SDS011;1016;48.770;9.154;2022-12-24T16:43:04;23.90;;;5.37;;
2023;SDS011;1016;48.770;9.154;2022-12-24T16:45:48;21.43;;;4.53;;
2023;SDS011;1016;48.770;9.154;2022-12-24T16:48:20;21.50;;;5.20;;